Terminal Aerodrome Forecast
Issued by NWS Wilmington, OH

Home | Current Version | Previous Version | Text Only | Print | Product List | Glossary On
Versions: 1 2 3 4 5 6 7 8 9 10 11 12 13 14 15 16 17 18 19 20 21 22 23 24 25 26
000
FTUS41 KILN 281737
TAFCMH
TAF
KCMH 281737Z 2818/2918 01011G20KT P6SM SCT028 BKN100
      TEMPO 2818/2820 BKN028
     FM290000 01012KT P6SM SCT150
     FM291400 03013G22KT P6SM SCT250=

USA.gov is the U.S. government's official web portal to all federal, state and local government web resources and services.